Poca, West Virginia
Current Conditions -  °F | °C
As of 12:54 PM on Friday 21 Nov 2014 (Local Time) from KCRW Reporting Station
Clear Clear  
Wind Chill: 28°   Ceiling: Unl
Heat Index: 33°   Visibility: 10mi
Dew Point:   Wind: 6mph
Humidity: 37%   Direction: 170°S
Pressure: 30.48"   Gusts: NA
Location:  38.47°N, 81.81°W
Report Text: KCRW 211754Z 17005KT 10SM CLR 01/M13 A3048 RMK AO2 SLP333 T00061128 10006 21061 58001
Loading
Personal Weather Stations






























Interactive Weather Map New forecast layout! Learn more

10-Day Weather Forecast

Advertisements
Track Severe Weather on mobile